sensor_id;sensor_type;location;lat;lon;timestamp;pressure;altitude;pressure_sealevel;temperature;humidity
33422;BME280;19763;55.798;37.782;2022-11-11T00:00:11;99864.50;;;9.30;86.50
33422;BME280;19763;55.798;37.782;2022-11-11T00:02:37;99854.97;;;9.36;86.62
33422;BME280;19763;55.798;37.782;2022-11-11T00:05:03;99857.56;;;9.36;87.29
33422;BME280;19763;55.798;37.782;2022-11-11T00:07:29;99839.50;;;9.32;86.29
33422;BME280;19763;55.798;37.782;2022-11-11T00:09:54;99855.13;;;9.26;87.60
33422;BME280;19763;55.798;37.782;2022-11-11T00:12:20;99859.38;;;9.29;86.99
33422;BME280;19763;55.798;37.782;2022-11-11T00:14:46;99865.56;;;9.17;87.07
33422;BME280;19763;55.798;37.782;2022-11-11T00:17:13;99851.00;;;9.10;87.16
33422;BME280;19763;55.798;37.782;2022-11-11T00:19:57;99854.41;;;9.15;87.43
33422;BME280;19763;55.798;37.782;2022-11-11T00:22:41;99855.16;;;9.22;87.40
33422;BME280;19763;55.798;37.782;2022-11-11T00:25:26;99859.47;;;9.21;87.80
33422;BME280;19763;55.798;37.782;2022-11-11T00:27:52;99815.78;;;9.04;87.67
33422;BME280;19763;55.798;37.782;2022-11-11T00:30:18;99840.59;;;9.14;88.32
33422;BME280;19763;55.798;37.782;2022-11-11T00:32:43;99849.94;;;9.25;87.53
33422;BME280;19763;55.798;37.782;2022-11-11T00:35:09;99843.00;;;9.28;87.59
33422;BME280;19763;55.798;37.782;2022-11-11T00:37:53;99848.19;;;9.28;87.74
33422;BME280;19763;55.798;37.782;2022-11-11T00:40:19;99848.19;;;9.28;88.05
33422;BME280;19763;55.798;37.782;2022-11-11T00:42:44;99844.91;;;9.15;88.29
33422;BME280;19763;55.798;37.782;2022-11-11T00:45:11;99845.66;;;9.24;88.93
33422;BME280;19763;55.798;37.782;2022-11-11T00:47:36;99847.50;;;9.15;89.15
33422;BME280;19763;55.798;37.782;2022-11-11T00:50:26;99821.69;;;9.12;89.51
33422;BME280;19763;55.798;37.782;2022-11-11T00:53:16;99825.88;;;9.21;89.41
33422;BME280;19763;55.798;37.782;2022-11-11T00:55:41;99837.69;;;9.41;88.88
33422;BME280;19763;55.798;37.782;2022-11-11T00:58:07;99836.81;;;9.40;88.25
33422;BME280;19763;55.798;37.782;2022-11-11T01:00:33;99838.50;;;9.43;88.61
33422;BME280;19763;55.798;37.782;2022-11-11T01:02:58;99834.22;;;9.40;89.33
33422;BME280;19763;55.798;37.782;2022-11-11T01:05:24;99833.50;;;9.32;88.92
33422;BME280;19763;55.798;37.782;2022-11-11T01:07:50;99823.38;;;9.17;89.40
33422;BME280;19763;55.798;37.782;2022-11-11T01:10:17;99831.75;;;9.32;89.51
33422;BME280;19763;55.798;37.782;2022-11-11T01:13:14;99829.09;;;9.37;89.01
33422;BME280;19763;55.798;37.782;2022-11-11T01:15:41;99835.13;;;9.38;89.75
33422;BME280;19763;55.798;37.782;2022-11-11T01:18:09;99824.97;;;9.25;90.15
33422;BME280;19763;55.798;37.782;2022-11-11T01:20:35;99839.69;;;9.19;90.07
33422;BME280;19763;55.798;37.782;2022-11-11T01:23:06;99842.16;;;9.29;90.54
33422;BME280;19763;55.798;37.782;2022-11-11T01:25:34;99837.06;;;9.22;90.02
33422;BME280;19763;55.798;37.782;2022-11-11T01:28:00;99828.72;;;9.03;91.75
33422;BME280;19763;55.798;37.782;2022-11-11T01:30:26;99836.16;;;9.26;90.87
33422;BME280;19763;55.798;37.782;2022-11-11T01:32:51;99840.53;;;9.22;90.40
33422;BME280;19763;55.798;37.782;2022-11-11T01:35:17;99819.97;;;9.11;91.15
33422;BME280;19763;55.798;37.782;2022-11-11T01:37:43;99836.16;;;9.26;91.72
33422;BME280;19763;55.798;37.782;2022-11-11T01:40:09;99842.13;;;9.31;90.90
33422;BME280;19763;55.798;37.782;2022-11-11T01:42:53;99832.66;;;9.30;90.64
33422;BME280;19763;55.798;37.782;2022-11-11T01:45:57;99825.78;;;9.29;91.47
33422;BME280;19763;55.798;37.782;2022-11-11T01:48:40;99825.78;;;9.27;91.09
33422;BME280;19763;55.798;37.782;2022-11-11T01:51:44;99839.63;;;9.23;91.67
33422;BME280;19763;55.798;37.782;2022-11-11T01:54:21;99837.09;;;9.20;92.04
33422;BME280;19763;55.798;37.782;2022-11-11T01:56:55;99839.59;;;9.25;91.18
33422;BME280;19763;55.798;37.782;2022-11-11T01:59:24;99843.13;;;9.21;91.09
33422;BME280;19763;55.798;37.782;2022-11-11T02:01:50;99842.41;;;9.11;91.74
33422;BME280;19763;55.798;37.782;2022-11-11T02:04:18;99822.63;;;9.07;92.68
33422;BME280;19763;55.798;37.782;2022-11-11T02:07:06;99839.84;;;9.06;92.81
33422;BME280;19763;55.798;37.782;2022-11-11T02:09:33;99814.09;;;9.00;92.97
33422;BME280;19763;55.798;37.782;2022-11-11T02:12:02;99813.16;;;9.07;92.89
33422;BME280;19763;55.798;37.782;2022-11-11T02:14:52;99816.56;;;9.11;92.43
33422;BME280;19763;55.798;37.782;2022-11-11T02:17:20;99830.28;;;9.14;93.01
33422;BME280;19763;55.798;37.782;2022-11-11T02:19:49;99839.81;;;9.09;93.15
33422;BME280;19763;55.798;37.782;2022-11-11T02:22:35;99827.00;;;9.02;93.11
33422;BME280;19763;55.798;37.782;2022-11-11T02:25:05;99820.97;;;9.01;93.02
33422;BME280;19763;55.798;37.782;2022-11-11T02:27:34;99819.31;;;8.97;92.77
33422;BME280;19763;55.798;37.782;2022-11-11T02:30:04;99808.25;;;8.86;93.93
33422;BME280;19763;55.798;37.782;2022-11-11T02:32:30;99839.91;;;9.02;93.79
33422;BME280;19763;55.798;37.782;2022-11-11T02:34:56;99834.91;;;8.88;93.68
33422;BME280;19763;55.798;37.782;2022-11-11T02:37:24;99817.91;;;8.71;94.31
33422;BME280;19763;55.798;37.782;2022-11-11T02:39:53;99823.63;;;8.95;94.48
33422;BME280;19763;55.798;37.782;2022-11-11T02:42:22;99822.72;;;8.99;93.15
33422;BME280;19763;55.798;37.782;2022-11-11T02:44:48;99831.41;;;8.93;94.10
33422;BME280;19763;55.798;37.782;2022-11-11T02:47:15;99826.19;;;9.00;93.88
33422;BME280;19763;55.798;37.782;2022-11-11T02:49:40;99831.28;;;9.04;93.34
33422;BME280;19763;55.798;37.782;2022-11-11T02:52:06;99838.97;;;9.07;93.19
33422;BME280;19763;55.798;37.782;2022-11-11T02:54:32;99845.84;;;9.10;93.22
33422;BME280;19763;55.798;37.782;2022-11-11T02:56:57;99835.47;;;9.13;93.18
33422;BME280;19763;55.798;37.782;2022-11-11T02:59:36;99829.56;;;9.03;93.82
33422;BME280;19763;55.798;37.782;2022-11-11T03:02:03;99834.66;;;9.09;93.36
33422;BME280;19763;55.798;37.782;2022-11-11T03:04:28;99838.19;;;9.02;94.10
33422;BME280;19763;55.798;37.782;2022-11-11T03:06:54;99829.56;;;9.02;93.89
33422;BME280;19763;55.798;37.782;2022-11-11T03:09:20;99826.06;;;9.07;93.35
33422;BME280;19763;55.798;37.782;2022-11-11T03:11:45;99827.81;;;9.07;93.86
33422;BME280;19763;55.798;37.782;2022-11-11T03:14:11;99827.78;;;9.08;93.29
33422;BME280;19763;55.798;37.782;2022-11-11T03:16:36;99831.16;;;9.15;93.80
33422;BME280;19763;55.798;37.782;2022-11-11T03:19:21;99829.34;;;9.20;93.54
33422;BME280;19763;55.798;37.782;2022-11-11T03:21:47;99837.88;;;9.27;93.35
33422;BME280;19763;55.798;37.782;2022-11-11T03:24:12;99832.78;;;9.21;93.12
33422;BME280;19763;55.798;37.782;2022-11-11T03:26:38;99834.63;;;9.12;93.63
33422;BME280;19763;55.798;37.782;2022-11-11T03:29:03;99839.84;;;9.06;93.33
33422;BME280;19763;55.798;37.782;2022-11-11T03:31:29;99845.78;;;9.13;93.32
33422;BME280;19763;55.798;37.782;2022-11-11T03:33:55;99840.53;;;9.19;93.13
33422;BME280;19763;55.798;37.782;2022-11-11T03:36:41;99830.25;;;9.16;93.03
33422;BME280;19763;55.798;37.782;2022-11-11T03:39:25;99834.56;;;9.15;93.32
33422;BME280;19763;55.798;37.782;2022-11-11T03:41:50;99837.22;;;9.11;93.95
33422;BME280;19763;55.798;37.782;2022-11-11T03:44:16;99836.44;;;9.04;94.34
33422;BME280;19763;55.798;37.782;2022-11-11T03:46:41;99838.91;;;9.12;94.38
33422;BME280;19763;55.798;37.782;2022-11-11T03:49:07;99838.88;;;9.13;93.79
33422;BME280;19763;55.798;37.782;2022-11-11T03:51:33;99838.81;;;9.20;93.73
33422;BME280;19763;55.798;37.782;2022-11-11T03:53:58;99839.66;;;9.22;93.24
33422;BME280;19763;55.798;37.782;2022-11-11T03:56:24;99842.44;;;9.08;93.44
33422;BME280;19763;55.798;37.782;2022-11-11T03:58:49;99840.63;;;9.13;94.06
33422;BME280;19763;55.798;37.782;2022-11-11T04:01:15;99837.13;;;9.17;93.97
33422;BME280;19763;55.798;37.782;2022-11-11T04:04:00;99837.91;;;9.25;93.30
33422;BME280;19763;55.798;37.782;2022-11-11T04:06:44;99839.69;;;9.19;94.08
33422;BME280;19763;55.798;37.782;2022-11-11T04:09:29;99828.56;;;9.15;93.56
33422;BME280;19763;55.798;37.782;2022-11-11T04:12:13;99837.19;;;9.12;94.66
33422;BME280;19763;55.798;37.782;2022-11-11T04:14:39;99834.56;;;9.17;94.33
33422;BME280;19763;55.798;37.782;2022-11-11T04:17:23;99850.13;;;9.12;94.31
33422;BME280;19763;55.798;37.782;2022-11-11T04:19:48;99846.72;;;9.09;94.22
33422;BME280;19763;55.798;37.782;2022-11-11T04:22:38;99845.16;;;8.95;94.47
33422;BME280;19763;55.798;37.782;2022-11-11T04:25:04;99845.19;;;8.94;94.19
33422;BME280;19763;55.798;37.782;2022-11-11T04:27:48;99858.88;;;8.99;94.33
33422;BME280;19763;55.798;37.782;2022-11-11T04:30:34;99857.06;;;9.07;93.75
33422;BME280;19763;55.798;37.782;2022-11-11T04:33:00;99867.34;;;9.10;94.28
33422;BME280;19763;55.798;37.782;2022-11-11T04:35:25;99868.38;;;8.98;93.60
33422;BME280;19763;55.798;37.782;2022-11-11T04:37:51;99850.31;;;8.97;93.63
33422;BME280;19763;55.798;37.782;2022-11-11T04:40:36;99865.72;;;9.03;93.62
33422;BME280;19763;55.798;37.782;2022-11-11T04:43:20;99869.97;;;9.07;92.83
33422;BME280;19763;55.798;37.782;2022-11-11T04:45:46;99862.38;;;8.96;93.12
33422;BME280;19763;55.798;37.782;2022-11-11T04:48:11;99863.94;;;9.08;93.28
33422;BME280;19763;55.798;37.782;2022-11-11T04:50:42;99870.78;;;9.12;93.20
33422;BME280;19763;55.798;37.782;2022-11-11T04:53:10;99866.69;;;8.94;92.30
33422;BME280;19763;55.798;37.782;2022-11-11T04:55:37;99888.84;;;9.14;92.45
33422;BME280;19763;55.798;37.782;2022-11-11T04:58:24;99888.09;;;9.04;92.12
33422;BME280;19763;55.798;37.782;2022-11-11T05:00:50;99884.69;;;9.04;91.92
33422;BME280;19763;55.798;37.782;2022-11-11T05:03:17;99881.09;;;9.14;91.91
33422;BME280;19763;55.798;37.782;2022-11-11T05:05:48;99872.59;;;9.06;91.50
33422;BME280;19763;55.798;37.782;2022-11-11T05:08:33;99885.41;;;9.13;91.39
33422;BME280;19763;55.798;37.782;2022-11-11T05:11:18;99883.63;;;9.19;92.37
33422;BME280;19763;55.798;37.782;2022-11-11T05:13:45;99875.97;;;9.12;91.46
33422;BME280;19763;55.798;37.782;2022-11-11T05:16:32;99879.38;;;9.13;92.29
33422;BME280;19763;55.798;37.782;2022-11-11T05:19:16;99868.34;;;9.00;91.85
33422;BME280;19763;55.798;37.782;2022-11-11T05:22:22;99860.63;;;8.97;92.22
33422;BME280;19763;55.798;37.782;2022-11-11T05:24:48;99885.41;;;9.15;91.96
33422;BME280;19763;55.798;37.782;2022-11-11T05:27:49;99862.22;;;9.07;92.37
33422;BME280;19763;55.798;37.782;2022-11-11T05:30:15;99870.00;;;9.06;91.79
33422;BME280;19763;55.798;37.782;2022-11-11T05:32:42;99888.78;;;9.20;91.61
33422;BME280;19763;55.798;37.782;2022-11-11T05:35:08;99887.00;;;9.24;91.84
33422;BME280;19763;55.798;37.782;2022-11-11T05:37:34;99849.41;;;9.00;91.86
33422;BME280;19763;55.798;37.782;2022-11-11T05:40:00;99889.59;;;9.24;91.25
33422;BME280;19763;55.798;37.782;2022-11-11T05:42:26;99878.59;;;9.09;91.86
33422;BME280;19763;55.798;37.782;2022-11-11T05:44:52;99888.78;;;9.20;91.25
33422;BME280;19763;55.798;37.782;2022-11-11T05:47:17;99893.97;;;9.19;91.54
33422;BME280;19763;55.798;37.782;2022-11-11T05:49:43;99889.75;;;9.10;91.36
33422;BME280;19763;55.798;37.782;2022-11-11T05:52:11;99884.63;;;9.08;91.08
33422;BME280;19763;55.798;37.782;2022-11-11T05:54:36;99888.81;;;9.17;91.48
33422;BME280;19763;55.798;37.782;2022-11-11T05:57:02;99888.94;;;9.08;90.88
33422;BME280;19763;55.798;37.782;2022-11-11T05:59:29;99903.47;;;9.17;91.02
33422;BME280;19763;55.798;37.782;2022-11-11T06:01:54;99894.97;;;9.07;90.96
33422;BME280;19763;55.798;37.782;2022-11-11T06:04:20;99891.41;;;9.15;91.35
33422;BME280;19763;55.798;37.782;2022-11-11T06:06:45;99895.00;;;9.04;91.03
33422;BME280;19763;55.798;37.782;2022-11-11T06:09:11;99905.22;;;9.13;90.97
33422;BME280;19763;55.798;37.782;2022-11-11T06:11:37;99908.50;;;9.27;90.36
33422;BME280;19763;55.798;37.782;2022-11-11T06:14:03;99894.88;;;9.13;90.29
33422;BME280;19763;55.798;37.782;2022-11-11T06:16:29;99907.72;;;9.19;90.59
33422;BME280;19763;55.798;37.782;2022-11-11T06:18:54;99900.78;;;9.24;90.48
33422;BME280;19763;55.798;37.782;2022-11-11T06:21:20;99918.81;;;9.29;89.87
33422;BME280;19763;55.798;37.782;2022-11-11T06:23:45;99912.88;;;9.22;89.86
33422;BME280;19763;55.798;37.782;2022-11-11T06:26:12;99912.97;;;9.13;90.02
33422;BME280;19763;55.798;37.782;2022-11-11T06:28:43;99915.66;;;9.05;90.58
33422;BME280;19763;55.798;37.782;2022-11-11T06:31:11;99927.47;;;9.25;90.96
33422;BME280;19763;55.798;37.782;2022-11-11T06:33:37;99924.88;;;9.28;90.21
33422;BME280;19763;55.798;37.782;2022-11-11T06:36:04;99932.69;;;9.20;89.85
33422;BME280;19763;55.798;37.782;2022-11-11T06:38:31;99927.66;;;9.09;90.89
33422;BME280;19763;55.798;37.782;2022-11-11T06:40:57;99919.78;;;9.20;90.93
33422;BME280;19763;55.798;37.782;2022-11-11T06:43:23;99926.59;;;9.26;89.93
33422;BME280;19763;55.798;37.782;2022-11-11T06:45:50;99931.66;;;9.35;90.61
33422;BME280;19763;55.798;37.782;2022-11-11T06:48:18;99924.88;;;9.28;89.77
33422;BME280;19763;55.798;37.782;2022-11-11T06:50:43;99927.44;;;9.29;90.24
33422;BME280;19763;55.798;37.782;2022-11-11T06:53:11;99931.63;;;9.38;89.63
33422;BME280;19763;55.798;37.782;2022-11-11T06:55:37;99934.28;;;9.30;89.82
33422;BME280;19763;55.798;37.782;2022-11-11T06:58:07;99934.34;;;9.26;90.27
33422;BME280;19763;55.798;37.782;2022-11-11T07:00:34;99931.66;;;9.35;89.92
33422;BME280;19763;55.798;37.782;2022-11-11T07:03:01;99930.94;;;9.24;89.95
33422;BME280;19763;55.798;37.782;2022-11-11T07:05:27;99937.81;;;9.25;89.70
33422;BME280;19763;55.798;37.782;2022-11-11T07:07:52;99934.34;;;9.27;89.70
33422;BME280;19763;55.798;37.782;2022-11-11T07:10:18;99937.09;;;9.15;89.96
33422;BME280;19763;55.798;37.782;2022-11-11T07:12:44;99940.44;;;9.22;90.00
33422;BME280;19763;55.798;37.782;2022-11-11T07:15:09;99939.47;;;9.32;89.57
33422;BME280;19763;55.798;37.782;2022-11-11T07:17:35;99945.44;;;9.36;89.89
33422;BME280;19763;55.798;37.782;2022-11-11T07:20:01;99942.69;;;9.49;88.86
33422;BME280;19763;55.798;37.782;2022-11-11T07:22:26;99935.94;;;9.39;89.13
33422;BME280;19763;55.798;37.782;2022-11-11T07:24:52;99930.66;;;9.45;88.91
33422;BME280;19763;55.798;37.782;2022-11-11T07:27:18;99940.94;;;9.52;89.54
33422;BME280;19763;55.798;37.782;2022-11-11T07:29:43;99937.41;;;9.57;88.93
33422;BME280;19763;55.798;37.782;2022-11-11T07:32:09;99933.16;;;9.52;88.77
33422;BME280;19763;55.798;37.782;2022-11-11T07:34:35;99938.28;;;9.56;88.54
33422;BME280;19763;55.798;37.782;2022-11-11T07:37:00;99948.59;;;9.59;88.46
33422;BME280;19763;55.798;37.782;2022-11-11T07:39:26;99951.19;;;9.59;88.16
33422;BME280;19763;55.798;37.782;2022-11-11T07:41:51;99952.06;;;9.57;88.76
33422;BME280;19763;55.798;37.782;2022-11-11T07:44:17;99949.50;;;9.57;88.77
33422;BME280;19763;55.798;37.782;2022-11-11T07:46:43;99956.47;;;9.48;89.11
33422;BME280;19763;55.798;37.782;2022-11-11T07:49:08;99965.06;;;9.52;88.57
33422;BME280;19763;55.798;37.782;2022-11-11T07:51:34;99966.63;;;9.64;88.71
33422;BME280;19763;55.798;37.782;2022-11-11T07:53:59;99964.88;;;9.64;87.79
33422;BME280;19763;55.798;37.782;2022-11-11T07:56:25;99959.63;;;9.72;88.14
33422;BME280;19763;55.798;37.782;2022-11-11T07:58:50;99957.78;;;9.80;88.22
33422;BME280;19763;55.798;37.782;2022-11-11T08:01:16;99976.72;;;9.82;87.72
33422;BME280;19763;55.798;37.782;2022-11-11T08:03:42;99972.44;;;9.80;88.55
33422;BME280;19763;55.798;37.782;2022-11-11T08:06:20;99972.59;;;9.71;87.88
33422;BME280;19763;55.798;37.782;2022-11-11T08:08:47;99971.66;;;9.76;88.11
33422;BME280;19763;55.798;37.782;2022-11-11T08:11:13;99979.50;;;9.68;88.33
33422;BME280;19763;55.798;37.782;2022-11-11T08:13:40;99973.38;;;9.76;87.86
33422;BME280;19763;55.798;37.782;2022-11-11T08:16:10;99982.97;;;9.69;88.28
33422;BME280;19763;55.798;37.782;2022-11-11T08:18:36;99968.72;;;9.34;90.07
33422;BME280;19763;55.798;37.782;2022-11-11T08:21:03;99947.06;;;9.44;89.00
33422;BME280;19763;55.798;37.782;2022-11-11T08:23:30;99956.38;;;9.56;89.79
33422;BME280;19763;55.798;37.782;2022-11-11T08:26:00;99959.72;;;9.64;88.77
33422;BME280;19763;55.798;37.782;2022-11-11T08:28:31;99960.56;;;9.66;88.49
33422;BME280;19763;55.798;37.782;2022-11-11T08:30:58;99950.16;;;9.71;88.57
33422;BME280;19763;55.798;37.782;2022-11-11T08:33:24;99956.34;;;9.61;88.20
33422;BME280;19763;55.798;37.782;2022-11-11T08:35:50;99948.50;;;9.65;88.76
33422;BME280;19763;55.798;37.782;2022-11-11T08:38:17;99950.13;;;9.73;88.67
33422;BME280;19763;55.798;37.782;2022-11-11T08:40:43;99943.41;;;9.61;88.61
33422;BME280;19763;55.798;37.782;2022-11-11T08:43:09;99946.84;;;9.61;88.72
33422;BME280;19763;55.798;37.782;2022-11-11T08:45:34;99945.13;;;9.59;88.64
33422;BME280;19763;55.798;37.782;2022-11-11T08:48:00;99949.34;;;9.66;88.64
33422;BME280;19763;55.798;37.782;2022-11-11T08:50:26;99948.47;;;9.68;88.20
33422;BME280;19763;55.798;37.782;2022-11-11T08:52:51;99943.25;;;9.70;88.49
33422;BME280;19763;55.798;37.782;2022-11-11T08:55:18;99949.28;;;9.72;88.77
33422;BME280;19763;55.798;37.782;2022-11-11T08:57:44;99942.44;;;9.68;88.85
33422;BME280;19763;55.798;37.782;2022-11-11T09:00:11;99945.94;;;9.64;88.88
33422;BME280;19763;55.798;37.782;2022-11-11T09:02:37;99940.13;;;9.48;89.85
33422;BME280;19763;55.798;37.782;2022-11-11T09:05:03;99934.91;;;9.51;89.17
33422;BME280;19763;55.798;37.782;2022-11-11T09:07:30;99947.66;;;9.65;88.89
33422;BME280;19763;55.798;37.782;2022-11-11T09:09:56;99946.78;;;9.64;89.04
33422;BME280;19763;55.798;37.782;2022-11-11T09:12:21;99946.94;;;9.54;89.42
33422;BME280;19763;55.798;37.782;2022-11-11T09:14:47;99950.41;;;9.53;88.77
33422;BME280;19763;55.798;37.782;2022-11-11T09:17:15;99961.50;;;9.61;88.41
33422;BME280;19763;55.798;37.782;2022-11-11T09:19:40;99951.19;;;9.59;89.01
33422;BME280;19763;55.798;37.782;2022-11-11T09:22:06;99952.91;;;9.59;88.81
33422;BME280;19763;55.798;37.782;2022-11-11T09:24:32;99951.22;;;9.58;88.97
33422;BME280;19763;55.798;37.782;2022-11-11T09:26:58;99953.00;;;9.51;89.03
33422;BME280;19763;55.798;37.782;2022-11-11T09:29:23;99960.53;;;9.68;88.08
33422;BME280;19763;55.798;37.782;2022-11-11T09:31:49;99958.78;;;9.70;88.46
33422;BME280;19763;55.798;37.782;2022-11-11T09:34:15;99960.63;;;9.63;88.24
33422;BME280;19763;55.798;37.782;2022-11-11T09:36:41;99966.69;;;9.59;88.67
33422;BME280;19763;55.798;37.782;2022-11-11T09:39:07;99970.16;;;9.58;88.42
33422;BME280;19763;55.798;37.782;2022-11-11T09:42:05;99970.97;;;9.60;87.79
33422;BME280;19763;55.798;37.782;2022-11-11T09:47:30;99968.38;;;9.60;87.67
33422;BME280;19763;55.798;37.782;2022-11-11T09:50:08;99966.63;;;9.64;87.80
33422;BME280;19763;55.798;37.782;2022-11-11T09:55:34;99982.94;;;9.67;87.61
33422;BME280;19763;55.798;37.782;2022-11-11T09:58:04;99962.41;;;9.58;87.74
33422;BME280;19763;55.798;37.782;2022-11-11T10:00:35;99978.78;;;9.56;87.91
33422;BME280;19763;55.798;37.782;2022-11-11T10:03:14;99957.06;;;9.71;87.35
33422;BME280;19763;55.798;37.782;2022-11-11T10:05:47;99968.94;;;9.84;87.39
33422;BME280;19763;55.798;37.782;2022-11-11T10:09:12;99970.56;;;9.91;86.76
33422;BME280;19763;55.798;37.782;2022-11-11T10:14:17;99980.19;;;9.81;87.15
33422;BME280;19763;55.798;37.782;2022-11-11T10:20:24;99971.63;;;9.75;86.92
33422;BME280;19763;55.798;37.782;2022-11-11T10:22:30;99982.91;;;9.72;87.49
33422;BME280;19763;55.798;37.782;2022-11-11T10:27:32;99982.00;;;9.73;86.85
33422;BME280;19763;55.798;37.782;2022-11-11T10:30:00;99986.38;;;9.71;87.61
33422;BME280;19763;55.798;37.782;2022-11-11T10:32:33;99985.44;;;9.77;86.75
33422;BME280;19763;55.798;37.782;2022-11-11T10:35:14;99990.66;;;9.72;87.32
33422;BME280;19763;55.798;37.782;2022-11-11T10:37:41;100010.34;;;9.84;87.05
33422;BME280;19763;55.798;37.782;2022-11-11T10:42:42;100004.34;;;9.80;87.51
33422;BME280;19763;55.798;37.782;2022-11-11T10:45:15;100014.69;;;9.79;87.57
33422;BME280;19763;55.798;37.782;2022-11-11T11:00:43;100001.03;;;9.67;88.06
33422;BME280;19763;55.798;37.782;2022-11-11T11:11:38;100016.41;;;9.81;87.69
33422;BME280;19763;55.798;37.782;2022-11-11T11:14:11;100011.16;;;9.88;87.82
33422;BME280;19763;55.798;37.782;2022-11-11T11:16:48;100026.53;;;9.97;87.59
33422;BME280;19763;55.798;37.782;2022-11-11T11:19:25;100030.91;;;9.95;87.89
33422;BME280;19763;55.798;37.782;2022-11-11T11:21:57;100030.06;;;9.93;88.20
33422;BME280;19763;55.798;37.782;2022-11-11T11:26:51;100014.19;;;9.52;88.71
33422;BME280;19763;55.798;37.782;2022-11-11T11:29:32;100043.13;;;9.83;88.95
33422;BME280;19763;55.798;37.782;2022-11-11T11:32:11;100033.59;;;9.85;88.67
33422;BME280;19763;55.798;37.782;2022-11-11T11:34:49;100022.47;;;9.79;88.55
33422;BME280;19763;55.798;37.782;2022-11-11T11:37:16;100034.53;;;9.80;88.60
33422;BME280;19763;55.798;37.782;2022-11-11T11:39:42;100038.94;;;9.70;89.20
33422;BME280;19763;55.798;37.782;2022-11-11T11:42:08;100041.50;;;9.73;88.86
33422;BME280;19763;55.798;37.782;2022-11-11T11:44:51;100051.66;;;9.89;89.03
33422;BME280;19763;55.798;37.782;2022-11-11T11:47:41;100039.63;;;9.84;88.75
33422;BME280;19763;55.798;37.782;2022-11-11T11:50:41;100043.03;;;9.90;88.38
33422;BME280;19763;55.798;37.782;2022-11-11T11:56:11;100022.59;;;9.70;89.21
33422;BME280;19763;55.798;37.782;2022-11-11T11:58:57;100020.09;;;9.62;89.47
33422;BME280;19763;55.798;37.782;2022-11-11T12:01:34;100032.09;;;9.69;89.82
33422;BME280;19763;55.798;37.782;2022-11-11T12:17:29;100017.41;;;9.71;90.95
33422;BME280;19763;55.798;37.782;2022-11-11T12:20:03;99996.84;;;9.59;90.80
33422;BME280;19763;55.798;37.782;2022-11-11T12:39:33;100006.03;;;9.83;90.78
33422;BME280;19763;55.798;37.782;2022-11-11T12:42:21;99995.03;;;9.67;91.04
33422;BME280;19763;55.798;37.782;2022-11-11T12:45:16;99992.50;;;9.62;91.61
33422;BME280;19763;55.798;37.782;2022-11-11T12:48:13;100007.16;;;9.60;91.71
33422;BME280;19763;55.798;37.782;2022-11-11T12:56:37;99995.91;;;9.66;91.74
33422;BME280;19763;55.798;37.782;2022-11-11T13:05:10;100007.06;;;9.71;91.51
33422;BME280;19763;55.798;37.782;2022-11-11T13:15:55;100000.88;;;9.81;89.60
33422;BME280;19763;55.798;37.782;2022-11-11T13:18:34;99999.16;;;9.83;89.83
33422;BME280;19763;55.798;37.782;2022-11-11T13:21:05;100006.00;;;9.84;90.30
33422;BME280;19763;55.798;37.782;2022-11-11T13:23:32;100009.56;;;9.76;90.06
33422;BME280;19763;55.798;37.782;2022-11-11T13:26:03;100007.19;;;9.59;90.38
33422;BME280;19763;55.798;37.782;2022-11-11T13:28:36;100007.97;;;9.67;89.86
33422;BME280;19763;55.798;37.782;2022-11-11T13:31:11;100014.69;;;9.80;90.17
33422;BME280;19763;55.798;37.782;2022-11-11T13:33:45;100003.44;;;9.83;90.34
33422;BME280;19763;55.798;37.782;2022-11-11T13:36:14;100004.34;;;9.79;90.39
33422;BME280;19763;55.798;37.782;2022-11-11T13:39:01;100009.44;;;9.87;90.39
33422;BME280;19763;55.798;37.782;2022-11-11T13:41:31;100008.56;;;9.86;90.59
33422;BME280;19763;55.798;37.782;2022-11-11T13:44:04;100018.06;;;9.85;91.42
33422;BME280;19763;55.798;37.782;2022-11-11T13:46:40;100005.22;;;9.81;90.52
33422;BME280;19763;55.798;37.782;2022-11-11T13:49:18;100018.16;;;9.79;91.08
33422;BME280;19763;55.798;37.782;2022-11-11T13:51:45;100017.34;;;9.74;91.39
33422;BME280;19763;55.798;37.782;2022-11-11T13:54:24;100013.03;;;9.73;90.87
33422;BME280;19763;55.798;37.782;2022-11-11T13:56:51;100013.94;;;9.74;91.55
33422;BME280;19763;55.798;37.782;2022-11-11T13:59:27;100001.97;;;9.62;91.26
33422;BME280;19763;55.798;37.782;2022-11-11T14:05:14;100011.38;;;9.71;89.72
33422;BME280;19763;55.798;37.782;2022-11-11T14:10:40;100003.50;;;9.78;89.40
33422;BME280;19763;55.798;37.782;2022-11-11T14:12:56;100013.03;;;9.76;88.71
33422;BME280;19763;55.798;37.782;2022-11-11T14:15:46;99997.50;;;9.76;88.11
33422;BME280;19763;55.798;37.782;2022-11-11T14:20:48;100014.00;;;9.69;88.36
33422;BME280;19763;55.798;37.782;2022-11-11T14:25:46;100016.53;;;9.72;87.47
33422;BME280;19763;55.798;37.782;2022-11-11T14:28:29;100004.41;;;9.74;86.65
33422;BME280;19763;55.798;37.782;2022-11-11T14:49:53;99998.31;;;9.80;85.92
33422;BME280;19763;55.798;37.782;2022-11-11T14:58:17;99987.09;;;9.81;85.71
33422;BME280;19763;55.798;37.782;2022-11-11T15:00:29;99977.75;;;9.71;85.39
33422;BME280;19763;55.798;37.782;2022-11-11T15:03:04;99983.72;;;9.74;84.79
33422;BME280;19763;55.798;37.782;2022-11-11T15:13:45;99967.09;;;9.94;83.46
33422;BME280;19763;55.798;37.782;2022-11-11T15:22:01;99959.50;;;9.81;82.60
33422;BME280;19763;55.798;37.782;2022-11-11T15:36:54;99958.66;;;9.79;81.44
33422;BME280;19763;55.798;37.782;2022-11-11T15:39:23;99948.44;;;9.70;81.37
33422;BME280;19763;55.798;37.782;2022-11-11T15:41:51;99952.59;;;9.83;81.88
33422;BME280;19763;55.798;37.782;2022-11-11T15:44:27;99952.44;;;9.93;81.25
33422;BME280;19763;55.798;37.782;2022-11-11T15:46:53;99945.63;;;9.85;81.29
33422;BME280;19763;55.798;37.782;2022-11-11T15:49:44;99942.00;;;9.97;80.23
33422;BME280;19763;55.798;37.782;2022-11-11T15:52:29;99945.59;;;9.89;80.30